KALI

Alice International Airport

Alice, Texas, USA
METAR KALI 242353Z AUTO 14015KT 10SM CLR 27/11 A2998 RMK AO2 SLP151 T02670111 10328 20267 53002
Observed Flight Rules
Apr-24 @ 23:53 UTC (31 minutes ago) Visual Flight Rules
Wind Visibility Clouds
140° at 15 knots 10 miles
  • Clear skies
Temperatures Readings
Current 27°C / 81°F
Dewpoint 11°C / 52°F
Humidity 37%
Altimeter 29.98" Hg
Pressure 1015.1 hPa
Elevation 53
METAR KALI 242353Z AUTO 14015KT 10SM CLR 27/11 A2998 RMK AO2 SLP151 T02670111 10328 20267 53002
Observed Flight Rules
Apr-24 @ 23:53 UTC
(31 minutes ago)
VFR
Wind Visibility
140° at 15 knots 10 miles
Clouds
  • Clear skies
Temperature Dewpoint
27°C / 81°F 11°C / 52°F
Humidity Altimeter Pressure
37% 29.98" Hg 1015.1 hPa